Main page
METAR-TAF:

METAR-TAF

Airports :

Greater Natal International Airport

Natal, Rio Grande do Norte, Brazil

latitude: 05-46-05S, longitude: 035-22-34W, elevation: 88 m

Current weather observation

The report was made 4 hours and 29 minutes ago, at 10:00 UTC
Wind 14 kt from the South/Southeast, varying between Southeast and South/Southwest
Temperature 27°C
Humidity 74%
Pressure 1013 hPa
Visibility: 9000 m
Broken clouds at a height of 2300 ft
Few clouds at a height of 2700 ft, Towering cumulus.

METAR: SBSG 141000Z 16014KT 140V200 9000 BKN023 FEW027TCU 27/22 Q1013

Time: 11:29 (14:29 UTC)

Forecast

The report was made 4 hours and 29 minutes ago, at 10:00 UTC
Forecast valid from 14 at 12 UTC to 15 at 12 UTC
Wind 15 kt from the South/Southeast
Visibility 10 km or more
Broken clouds at a height of 2500 ft
Becoming
from 14 at 21 UTC to 14 at 22 UTC
Wind 5 kt from the South/Southwest

TAF: SBSG 141000Z 1412/1512 16015KT 9999 BKN025 TX31/1416Z TN23/1507Z BECMG 1421/1422 20005KT RMK PCN

Weather observations and forecasts of more than 4000 airports (METAR and TAF reports).

The available stations are represented by yellow and red dots on the map.

Hover mouse over dot to see the name of the station.

Then click to see weather observations and forecasts.

To change the map : click on the green buttons with a black cross to zoom in, on the green button with a dash to zoom out, or on the green arrows for adjacent maps.


METAR-TAF: